createdAt,value
2022-09-09T00:00:33.015Z,1003.00
2022-09-09T00:01:32.998Z,1002.93
2022-09-09T00:02:33.050Z,1002.95
2022-09-09T00:03:33.185Z,1002.96
2022-09-09T00:04:32.955Z,1002.97
2022-09-09T00:05:32.916Z,1002.94
2022-09-09T00:06:32.894Z,1002.92
2022-09-09T00:07:32.880Z,1002.95
2022-09-09T00:08:32.893Z,1002.94
2022-09-09T00:09:32.835Z,1002.89
2022-09-09T00:10:32.816Z,1002.93
2022-09-09T00:11:32.795Z,1002.89
2022-09-09T00:12:32.773Z,1002.88
2022-09-09T00:13:32.755Z,1002.82
2022-09-09T00:14:32.735Z,1002.82
2022-09-09T00:15:32.773Z,1002.80
2022-09-09T00:16:32.694Z,1002.82
2022-09-09T00:17:32.675Z,1002.79
2022-09-09T00:18:32.651Z,1002.85
2022-09-09T00:19:32.634Z,1002.88
2022-09-09T00:20:32.637Z,1002.90
2022-09-09T00:21:32.595Z,1002.85
2022-09-09T00:22:32.575Z,1002.88
2022-09-09T00:23:32.554Z,1002.87
2022-09-09T00:24:32.534Z,1002.89
2022-09-09T00:25:32.516Z,1002.89
2022-09-09T00:26:32.495Z,1002.88
2022-09-09T00:27:32.478Z,1002.90
2022-09-09T00:28:32.554Z,1002.90
2022-09-09T00:29:32.435Z,1002.92
2022-09-09T00:30:32.447Z,1002.93
2022-09-09T00:31:32.401Z,1002.89
2022-09-09T00:32:32.382Z,1002.88
2022-09-09T00:33:32.356Z,1002.90
2022-09-09T00:34:32.390Z,1002.90
2022-09-09T00:35:32.315Z,1002.90
2022-09-09T00:36:32.321Z,1002.86
2022-09-09T00:37:32.277Z,1002.82
2022-09-09T00:38:32.254Z,1002.84
2022-09-09T00:39:32.312Z,1002.79
2022-09-09T00:40:32.213Z,1002.78
2022-09-09T00:41:32.195Z,1002.75
2022-09-09T00:42:32.173Z,1002.74
2022-09-09T00:43:32.153Z,1002.77
2022-09-09T00:44:32.142Z,1002.79
2022-09-09T00:45:32.112Z,1002.77
2022-09-09T00:46:32.180Z,1002.76
2022-09-09T00:47:32.079Z,1002.78
2022-09-09T00:48:32.132Z,1002.75
2022-09-09T00:49:32.031Z,1002.78
2022-09-09T00:50:32.009Z,1002.78
2022-09-09T00:51:31.991Z,1002.74
2022-09-09T00:52:31.991Z,1002.73
2022-09-09T00:53:31.953Z,1002.73
2022-09-09T00:54:31.932Z,1002.75
2022-09-09T00:55:31.914Z,1002.71
2022-09-09T00:56:31.889Z,1002.72
2022-09-09T00:57:31.872Z,1002.69
2022-09-09T00:58:31.904Z,1002.69
2022-09-09T00:59:31.831Z,1002.70
2022-09-09T01:00:31.808Z,1002.71
2022-09-09T01:01:31.859Z,1002.69
2022-09-09T01:02:31.835Z,1002.70
2022-09-09T01:03:31.750Z,1002.70
2022-09-09T01:04:31.729Z,1002.72
2022-09-09T01:05:31.712Z,1002.71
2022-09-09T01:06:31.689Z,1002.69
2022-09-09T01:07:31.669Z,1002.69
2022-09-09T01:08:31.668Z,1002.67
2022-09-09T01:09:31.629Z,1002.66
2022-09-09T01:10:31.606Z,1002.69
2022-09-09T01:11:31.586Z,1002.69
2022-09-09T01:12:31.571Z,1002.69
2022-09-09T01:13:31.561Z,1002.69
2022-09-09T01:14:31.527Z,1002.69
2022-09-09T01:15:31.509Z,1002.69
2022-09-09T01:16:31.535Z,1002.66
2022-09-09T01:17:31.463Z,1002.63
2022-09-09T01:18:31.442Z,1002.62
2022-09-09T01:19:31.424Z,1002.56
2022-09-09T01:20:31.402Z,1002.59
2022-09-09T01:21:31.386Z,1002.58
2022-09-09T01:22:31.363Z,1002.62
2022-09-09T01:23:31.346Z,1002.60
2022-09-09T01:24:31.341Z,1002.65
2022-09-09T01:25:31.306Z,1002.71
2022-09-09T01:26:31.283Z,1002.80
2022-09-09T01:27:31.265Z,1002.79
2022-09-09T01:28:31.242Z,1002.79
2022-09-09T01:29:31.221Z,1002.78
2022-09-09T01:30:31.258Z,1002.82
2022-09-09T01:31:31.183Z,1002.81
2022-09-09T01:32:31.160Z,1002.79
2022-09-09T01:33:31.147Z,1002.80
2022-09-09T01:34:31.122Z,1002.85
2022-09-09T01:35:31.101Z,1002.81
2022-09-09T01:36:31.080Z,1002.85
2022-09-09T01:37:31.061Z,1002.83
2022-09-09T01:38:31.040Z,1002.82
2022-09-09T01:39:31.072Z,1002.82
2022-09-09T01:40:31.020Z,1002.80
2022-09-09T01:41:30.979Z,1002.85
2022-09-09T01:42:30.960Z,1002.82
2022-09-09T01:43:30.939Z,1002.78
2022-09-09T01:44:30.916Z,1002.81
2022-09-09T01:45:30.900Z,1002.80
2022-09-09T01:46:30.947Z,1002.77
2022-09-09T01:47:30.855Z,1002.79
2022-09-09T01:48:30.838Z,1002.82
2022-09-09T01:49:30.817Z,1002.80
2022-09-09T01:50:30.797Z,1002.77
2022-09-09T01:51:30.775Z,1002.77
2022-09-09T01:52:30.759Z,1002.79
2022-09-09T01:53:30.740Z,1002.81
2022-09-09T01:54:30.715Z,1002.79
2022-09-09T01:55:30.849Z,1002.78
2022-09-09T01:56:30.700Z,1002.81
2022-09-09T01:57:30.657Z,1002.83
2022-09-09T01:58:30.635Z,1002.84
2022-09-09T01:59:30.617Z,1002.84
2022-09-09T02:00:30.746Z,1002.81
2022-09-09T02:01:30.641Z,1002.79
2022-09-09T02:02:30.593Z,1002.84
2022-09-09T02:03:30.534Z,1002.82
2022-09-09T02:04:30.513Z,1002.85
2022-09-09T02:05:30.495Z,1002.80
2022-09-09T02:06:30.474Z,1002.77
2022-09-09T02:07:30.458Z,1002.80
2022-09-09T02:08:30.429Z,1002.81
2022-09-09T02:09:30.411Z,1002.85
2022-09-09T02:10:30.392Z,1002.82
2022-09-09T02:11:30.377Z,1002.85
2022-09-09T02:12:30.371Z,1002.85
2022-09-09T02:13:30.331Z,1002.82
2022-09-09T02:14:30.310Z,1002.86
2022-09-09T02:15:30.290Z,1002.84
2022-09-09T02:16:30.389Z,1002.84
2022-09-09T02:17:30.250Z,1002.89
2022-09-09T02:18:30.229Z,1002.90
2022-09-09T02:19:30.207Z,1002.92
2022-09-09T02:20:34.518Z,1002.90
2022-09-09T02:21:30.171Z,1002.86
2022-09-09T02:22:30.147Z,1002.91
2022-09-09T02:23:30.164Z,1002.84
2022-09-09T02:24:30.108Z,1002.83
2022-09-09T02:25:30.087Z,1002.87
2022-09-09T02:26:30.068Z,1002.88
2022-09-09T02:27:30.046Z,1002.89
2022-09-09T02:28:30.203Z,1002.90
2022-09-09T02:29:30.011Z,1002.92
2022-09-09T02:30:30.029Z,1002.91
2022-09-09T02:31:29.966Z,1002.90
2022-09-09T02:32:29.946Z,1002.89
2022-09-09T02:33:29.926Z,1002.88
2022-09-09T02:34:29.905Z,1002.85
2022-09-09T02:35:29.884Z,1002.82
2022-09-09T02:36:29.874Z,1002.81
2022-09-09T02:37:29.842Z,1002.81
2022-09-09T02:38:29.825Z,1002.80
2022-09-09T02:39:29.837Z,1002.82
2022-09-09T02:40:29.783Z,1002.86
2022-09-09T02:41:29.762Z,1002.82
2022-09-09T02:42:29.740Z,1002.83
2022-09-09T02:43:29.718Z,1002.83
2022-09-09T02:44:29.747Z,1002.83
2022-09-09T02:45:29.748Z,1002.80
2022-09-09T02:46:29.665Z,1002.82
2022-09-09T02:47:29.647Z,1002.83
2022-09-09T02:48:29.713Z,1002.84
2022-09-09T02:49:29.602Z,1002.84
2022-09-09T02:50:29.578Z,1002.84
2022-09-09T02:51:29.560Z,1002.87
2022-09-09T02:52:29.538Z,1002.87
2022-09-09T02:53:29.516Z,1002.85
2022-09-09T02:54:29.497Z,1002.87
2022-09-09T02:55:29.478Z,1002.88
2022-09-09T02:56:29.460Z,1002.88
2022-09-09T02:57:29.434Z,1002.88
2022-09-09T02:58:29.520Z,1002.88
2022-09-09T02:59:29.398Z,1002.89
2022-09-09T03:00:29.399Z,1002.95
2022-09-09T03:01:29.448Z,1002.96
2022-09-09T03:02:29.401Z,1003.00
2022-09-09T03:03:29.313Z,1003.00
2022-09-09T03:04:29.294Z,1003.04
2022-09-09T03:05:29.277Z,1002.99
2022-09-09T03:06:29.264Z,1003.04
2022-09-09T03:07:29.234Z,1003.00
2022-09-09T03:08:29.256Z,1003.00
2022-09-09T03:09:29.192Z,1003.01
2022-09-09T03:10:29.174Z,1002.99
2022-09-09T03:11:29.161Z,1003.00
2022-09-09T03:12:29.133Z,1002.99
2022-09-09T03:13:29.110Z,1003.00
2022-09-09T03:14:29.090Z,1003.00
2022-09-09T03:15:29.073Z,1002.99
2022-09-09T03:16:29.158Z,1003.02
2022-09-09T03:17:29.034Z,1003.01
2022-09-09T03:18:29.067Z,1002.98
2022-09-09T03:19:28.987Z,1002.97
2022-09-09T03:20:28.969Z,1002.94
2022-09-09T03:21:28.951Z,1002.92
2022-09-09T03:22:28.933Z,1002.91
2022-09-09T03:23:28.907Z,1002.89
2022-09-09T03:24:28.888Z,1002.89
2022-09-09T03:25:28.869Z,1002.84
2022-09-09T03:26:28.849Z,1002.92
2022-09-09T03:27:28.827Z,1002.87
2022-09-09T03:28:28.899Z,1002.88
2022-09-09T03:29:28.786Z,1002.85
2022-09-09T03:30:28.769Z,1002.84
2022-09-09T03:31:28.772Z,1002.88
2022-09-09T03:32:28.754Z,1002.83
2022-09-09T03:33:28.707Z,1002.85
2022-09-09T03:34:28.683Z,1002.86
2022-09-09T03:35:28.664Z,1002.84
2022-09-09T03:36:28.644Z,1002.87
2022-09-09T03:37:28.621Z,1002.83
2022-09-09T03:38:28.603Z,1002.85
2022-09-09T03:39:28.585Z,1002.84
2022-09-09T03:40:28.561Z,1002.82
2022-09-09T03:41:28.547Z,1002.86
2022-09-09T03:42:28.525Z,1002.84
2022-09-09T03:43:28.498Z,1002.82
2022-09-09T03:44:28.479Z,1002.85
2022-09-09T03:45:28.514Z,1002.87
2022-09-09T03:46:28.441Z,1002.87
2022-09-09T03:47:28.418Z,1002.85
2022-09-09T03:48:28.419Z,1002.83
2022-09-09T03:49:28.377Z,1002.85
2022-09-09T03:50:28.358Z,1002.82
2022-09-09T03:51:28.338Z,1002.80
2022-09-09T03:52:28.318Z,1002.83
2022-09-09T03:53:28.300Z,1002.79
2022-09-09T03:54:28.287Z,1002.78
2022-09-09T03:55:28.255Z,1002.82
2022-09-09T03:56:28.235Z,1002.80
2022-09-09T03:57:28.215Z,1002.81
2022-09-09T03:58:28.196Z,1002.76
2022-09-09T03:59:28.174Z,1002.77
2022-09-09T04:00:28.155Z,1002.78
2022-09-09T04:01:28.209Z,1002.77
2022-09-09T04:02:28.192Z,1002.75
2022-09-09T04:03:28.565Z,1002.73
2022-09-09T04:04:28.096Z,1002.76
2022-09-09T04:05:28.051Z,1002.76
2022-09-09T04:06:28.032Z,1002.75
2022-09-09T04:07:28.011Z,1002.77
2022-09-09T04:08:27.991Z,1002.73
2022-09-09T04:09:27.971Z,1002.74
2022-09-09T04:10:27.949Z,1002.78
2022-09-09T04:11:27.929Z,1002.77
2022-09-09T04:12:27.909Z,1002.76
2022-09-09T04:13:27.890Z,1002.80
2022-09-09T04:14:27.870Z,1002.78
2022-09-09T04:15:27.847Z,1002.77
2022-09-09T04:16:27.896Z,1002.78
2022-09-09T04:17:27.807Z,1002.80
2022-09-09T04:18:27.787Z,1002.80
2022-09-09T04:19:27.772Z,1002.77
2022-09-09T04:20:27.769Z,1002.78
2022-09-09T04:21:27.724Z,1002.77
2022-09-09T04:22:27.704Z,1002.80
2022-09-09T04:23:27.686Z,1002.77
2022-09-09T04:24:27.664Z,1002.78
2022-09-09T04:25:27.644Z,1002.78
2022-09-09T04:26:27.622Z,1002.79
2022-09-09T04:27:27.607Z,1002.81
2022-09-09T04:28:27.590Z,1002.79
2022-09-09T04:29:27.566Z,1002.80
2022-09-09T04:30:27.545Z,1002.77
2022-09-09T04:31:27.595Z,1002.78
2022-09-09T04:32:27.504Z,1002.79
2022-09-09T04:33:27.485Z,1002.77
2022-09-09T04:34:27.466Z,1002.78
2022-09-09T04:35:27.439Z,1002.79
2022-09-09T04:36:27.570Z,1002.81
2022-09-09T04:37:27.400Z,1002.82
2022-09-09T04:38:27.382Z,1002.81
2022-09-09T04:39:27.359Z,1002.80
2022-09-09T04:40:27.340Z,1002.85
2022-09-09T04:41:27.323Z,1002.86
2022-09-09T04:42:27.299Z,1002.87
2022-09-09T04:43:27.277Z,1002.82
2022-09-09T04:44:27.262Z,1002.86
2022-09-09T04:45:27.341Z,1002.88
2022-09-09T04:46:27.224Z,1002.91
2022-09-09T04:47:27.200Z,1002.91
2022-09-09T04:48:27.180Z,1002.93
2022-09-09T04:49:27.158Z,1002.93
2022-09-09T04:50:27.135Z,1002.97
2022-09-09T04:51:27.117Z,1002.95
2022-09-09T04:52:27.142Z,1002.99
2022-09-09T04:53:27.079Z,1002.99
2022-09-09T04:54:27.055Z,1002.95
2022-09-09T04:55:27.031Z,1003.00
2022-09-09T04:56:27.013Z,1002.98
2022-09-09T04:57:26.993Z,1003.00
2022-09-09T04:58:26.973Z,1003.02
2022-09-09T04:59:26.960Z,1002.98
2022-09-09T05:00:26.932Z,1002.98
2022-09-09T05:01:26.989Z,1002.99
2022-09-09T05:02:31.366Z,1002.96
2022-09-09T05:03:26.871Z,1003.03
2022-09-09T05:04:26.851Z,1002.96
2022-09-09T05:05:26.830Z,1002.94
2022-09-09T05:06:26.809Z,1002.91
2022-09-09T05:07:26.788Z,1002.91
2022-09-09T05:08:26.794Z,1002.92
2022-09-09T05:09:26.748Z,1002.89
2022-09-09T05:10:26.727Z,1002.89
2022-09-09T05:11:26.757Z,1002.92
2022-09-09T05:12:26.687Z,1002.89
2022-09-09T05:13:26.665Z,1002.88
2022-09-09T05:14:26.646Z,1002.88
2022-09-09T05:15:26.627Z,1002.87
2022-09-09T05:16:26.637Z,1002.85
2022-09-09T05:17:26.583Z,1002.87
2022-09-09T05:18:26.565Z,1002.86
2022-09-09T05:19:26.546Z,1002.89
2022-09-09T05:20:26.532Z,1002.86
2022-09-09T05:21:26.503Z,1002.86
2022-09-09T05:22:26.484Z,1002.85
2022-09-09T05:23:26.464Z,1002.84
2022-09-09T05:24:26.466Z,1002.91
2022-09-09T05:25:26.424Z,1002.85
2022-09-09T05:26:26.402Z,1002.84
2022-09-09T05:27:26.386Z,1002.85
2022-09-09T05:28:26.363Z,1002.79
2022-09-09T05:29:26.341Z,1002.87
2022-09-09T05:30:26.323Z,1002.84
2022-09-09T05:31:27.226Z,1002.84
2022-09-09T05:32:26.282Z,1002.87
2022-09-09T05:33:26.260Z,1002.87
2022-09-09T05:34:26.240Z,1002.90
2022-09-09T05:35:26.222Z,1002.91
2022-09-09T05:36:26.202Z,1002.90
2022-09-09T05:37:26.180Z,1002.90
2022-09-09T05:38:28.691Z,1002.86
2022-09-09T05:39:26.142Z,1002.87
2022-09-09T05:40:26.139Z,1002.87
2022-09-09T05:41:26.096Z,1002.88
2022-09-09T05:42:26.076Z,1002.89
2022-09-09T05:43:26.055Z,1002.88
2022-09-09T05:44:26.039Z,1002.94
2022-09-09T05:45:26.017Z,1002.92
2022-09-09T05:46:26.227Z,1002.91
2022-09-09T05:47:25.973Z,1002.91
2022-09-09T05:48:25.956Z,1002.91
2022-09-09T05:49:25.937Z,1002.87
2022-09-09T05:50:29.746Z,1002.89
2022-09-09T05:51:25.895Z,1002.87
2022-09-09T05:52:25.876Z,1002.89
2022-09-09T05:53:25.853Z,1002.90
2022-09-09T05:54:25.838Z,1002.92
2022-09-09T05:55:25.814Z,1002.88
2022-09-09T05:56:25.815Z,1002.87
2022-09-09T05:57:25.772Z,1002.90
2022-09-09T05:58:25.754Z,1002.90
2022-09-09T05:59:25.745Z,1002.89
2022-09-09T06:00:25.718Z,1002.89
2022-09-09T06:01:25.700Z,1002.91
2022-09-09T06:02:25.820Z,1002.90
2022-09-09T06:03:25.656Z,1002.90
2022-09-09T06:04:25.634Z,1002.94
2022-09-09T06:05:25.611Z,1002.89
2022-09-09T06:06:25.589Z,1002.88
2022-09-09T06:07:25.577Z,1002.89
2022-09-09T06:08:25.549Z,1002.88
2022-09-09T06:09:25.527Z,1002.85
2022-09-09T06:10:25.508Z,1002.86
2022-09-09T06:11:25.488Z,1002.85
2022-09-09T06:12:25.487Z,1002.87
2022-09-09T06:13:25.452Z,1002.87
2022-09-09T06:14:25.425Z,1002.84
2022-09-09T06:15:25.408Z,1002.87
2022-09-09T06:16:25.456Z,1002.85
2022-09-09T06:17:25.364Z,1002.85
2022-09-09T06:18:25.356Z,1002.84
2022-09-09T06:19:25.325Z,1002.85
2022-09-09T06:20:25.310Z,1002.85
2022-09-09T06:21:25.287Z,1002.87
2022-09-09T06:22:25.263Z,1002.85
2022-09-09T06:23:25.243Z,1002.85
2022-09-09T06:24:25.225Z,1002.87
2022-09-09T06:25:25.205Z,1002.85
2022-09-09T06:26:25.189Z,1002.84
2022-09-09T06:27:25.164Z,1002.78
2022-09-09T06:28:25.163Z,1002.81
2022-09-09T06:29:25.122Z,1002.81
2022-09-09T06:30:25.102Z,1002.85
2022-09-09T06:31:29.692Z,1002.86
2022-09-09T06:32:25.061Z,1002.83
2022-09-09T06:33:25.041Z,1002.86
2022-09-09T06:34:25.021Z,1002.87
2022-09-09T06:35:25.000Z,1002.90
2022-09-09T06:36:24.984Z,1002.89
2022-09-09T06:37:24.959Z,1002.88
2022-09-09T06:38:24.941Z,1002.92
2022-09-09T06:39:24.919Z,1002.95
2022-09-09T06:40:24.950Z,1002.93
2022-09-09T06:41:24.879Z,1002.92
2022-09-09T06:42:24.860Z,1002.93
2022-09-09T06:43:24.840Z,1002.92
2022-09-09T06:44:24.839Z,1002.94
2022-09-09T06:45:24.798Z,1002.92
2022-09-09T06:46:24.817Z,1002.94
2022-09-09T06:47:24.758Z,1002.95
2022-09-09T06:48:24.737Z,1002.94
2022-09-09T06:49:24.721Z,1002.99
2022-09-09T06:50:24.786Z,1002.98
2022-09-09T06:51:24.677Z,1002.99
2022-09-09T06:52:24.656Z,1002.97
2022-09-09T06:53:24.638Z,1002.94
2022-09-09T06:54:24.615Z,1002.95
2022-09-09T06:55:24.600Z,1002.97
2022-09-09T06:56:24.574Z,1003.00
2022-09-09T06:57:37.024Z,1003.03
2022-09-09T06:58:24.533Z,1003.02
2022-09-09T06:59:24.514Z,1003.05
2022-09-09T07:00:24.516Z,1003.05
2022-09-09T07:01:24.475Z,1003.11
2022-09-09T07:02:24.476Z,1003.08
2022-09-09T07:03:24.433Z,1003.12
2022-09-09T07:04:24.415Z,1003.09
2022-09-09T07:05:24.396Z,1003.11
2022-09-09T07:06:24.371Z,1003.10
2022-09-09T07:07:24.368Z,1003.14
2022-09-09T07:08:24.331Z,1003.11
2022-09-09T07:09:24.312Z,1003.11
2022-09-09T07:10:24.291Z,1003.11
2022-09-09T07:11:24.281Z,1003.15
2022-09-09T07:12:24.249Z,1003.12
2022-09-09T07:13:24.280Z,1003.10
2022-09-09T07:14:24.218Z,1003.16
2022-09-09T07:15:24.188Z,1003.15
2022-09-09T07:16:24.275Z,1003.13
2022-09-09T07:17:24.155Z,1003.12
2022-09-09T07:18:24.128Z,1003.14
2022-09-09T07:19:24.110Z,1003.17
2022-09-09T07:20:24.091Z,1003.16
2022-09-09T07:21:24.074Z,1003.17
2022-09-09T07:22:24.048Z,1003.17
2022-09-09T07:23:24.026Z,1003.11
2022-09-09T07:24:24.009Z,1003.18
2022-09-09T07:25:23.993Z,1003.12
2022-09-09T07:26:23.973Z,1003.13
2022-09-09T07:27:23.948Z,1003.16
2022-09-09T07:28:23.933Z,1003.14
2022-09-09T07:29:23.914Z,1003.15
2022-09-09T07:30:27.580Z,1003.18
2022-09-09T07:31:24.015Z,1003.18
2022-09-09T07:32:23.869Z,1003.17
2022-09-09T07:33:23.833Z,1003.17
2022-09-09T07:34:23.808Z,1003.17
2022-09-09T07:35:23.788Z,1003.20
2022-09-09T07:36:23.782Z,1003.17
2022-09-09T07:37:23.749Z,1003.17
2022-09-09T07:38:23.731Z,1003.17
2022-09-09T07:39:23.705Z,1003.17
2022-09-09T07:40:23.683Z,1003.19
2022-09-09T07:41:23.670Z,1003.17
2022-09-09T07:42:23.645Z,1003.21
2022-09-09T07:43:23.627Z,1003.23
2022-09-09T07:44:23.608Z,1003.22
2022-09-09T07:45:23.583Z,1003.19
2022-09-09T07:46:23.632Z,1003.21
2022-09-09T07:47:23.544Z,1003.22
2022-09-09T07:48:23.547Z,1003.22
2022-09-09T07:49:29.666Z,1003.18
2022-09-09T07:50:23.485Z,1003.22
2022-09-09T07:51:23.466Z,1003.24
2022-09-09T07:52:23.447Z,1003.22
2022-09-09T07:53:23.425Z,1003.18
2022-09-09T07:54:23.403Z,1003.22
2022-09-09T07:55:23.386Z,1003.22
2022-09-09T07:56:23.376Z,1003.22
2022-09-09T07:57:23.343Z,1003.22
2022-09-09T07:58:23.327Z,1003.25
2022-09-09T07:59:23.308Z,1003.23
2022-09-09T08:00:23.282Z,1003.24
2022-09-09T08:01:23.301Z,1003.24
2022-09-09T08:02:23.241Z,1003.23
2022-09-09T08:03:23.266Z,1003.23
2022-09-09T08:04:23.226Z,1003.23
2022-09-09T08:05:23.182Z,1003.21
2022-09-09T08:06:23.161Z,1003.20
2022-09-09T08:07:23.148Z,1003.19
2022-09-09T08:08:23.121Z,1003.18
2022-09-09T08:09:23.102Z,1003.22
2022-09-09T08:10:23.086Z,1003.19
2022-09-09T08:11:23.064Z,1003.21
2022-09-09T08:12:23.042Z,1003.20
2022-09-09T08:13:23.024Z,1003.21
2022-09-09T08:14:23.008Z,1003.19
2022-09-09T08:15:22.984Z,1003.25
2022-09-09T08:16:22.980Z,1003.16
2022-09-09T08:17:22.941Z,1003.27
2022-09-09T08:18:22.918Z,1003.23
2022-09-09T08:19:22.911Z,1003.24
2022-09-09T08:20:22.901Z,1003.23
2022-09-09T08:21:22.862Z,1003.24
2022-09-09T08:22:22.848Z,1003.22
2022-09-09T08:23:22.823Z,1003.24
2022-09-09T08:24:22.803Z,1003.23
2022-09-09T08:25:22.786Z,1003.25
2022-09-09T08:26:22.763Z,1003.26
2022-09-09T08:27:22.740Z,1003.26
2022-09-09T08:28:22.728Z,1003.32
2022-09-09T08:29:22.707Z,1003.27
2022-09-09T08:30:22.683Z,1003.31
2022-09-09T08:32:22.663Z,1003.30
2022-09-09T08:33:22.625Z,1003.26
2022-09-09T08:34:22.606Z,1003.31
2022-09-09T08:35:22.583Z,1003.25
2022-09-09T08:36:22.589Z,1003.37
2022-09-09T08:37:22.543Z,1003.30
2022-09-09T08:38:22.530Z,1003.29
2022-09-09T08:39:22.502Z,1003.40
2022-09-09T08:40:22.512Z,1003.41
2022-09-09T08:41:22.469Z,1003.37
2022-09-09T08:42:22.443Z,1003.34
2022-09-09T08:43:22.420Z,1003.31
2022-09-09T08:44:22.408Z,1003.34
2022-09-09T08:45:22.383Z,1003.31
2022-09-09T08:46:22.412Z,1003.33
2022-09-09T08:47:22.345Z,1003.33
2022-09-09T08:48:22.328Z,1003.38
2022-09-09T08:49:22.308Z,1003.41
2022-09-09T08:50:22.292Z,1003.36
2022-09-09T08:51:22.270Z,1003.38
2022-09-09T08:52:22.265Z,1003.44
2022-09-09T08:53:22.230Z,1003.42
2022-09-09T08:54:48.326Z,1003.37
2022-09-09T08:55:22.191Z,1003.45
2022-09-09T08:56:22.170Z,1003.43
2022-09-09T08:57:22.151Z,1003.44
2022-09-09T08:58:22.128Z,1003.39
2022-09-09T08:59:22.108Z,1003.37
2022-09-09T09:00:22.094Z,1003.37
2022-09-09T09:01:22.129Z,1003.39
2022-09-09T09:02:22.053Z,1003.45
2022-09-09T09:03:22.032Z,1003.33
2022-09-09T09:04:22.038Z,1003.30
2022-09-09T09:05:21.996Z,1003.33
2022-09-09T09:06:21.973Z,1003.36
2022-09-09T09:07:21.957Z,1003.32
2022-09-09T09:08:21.954Z,1003.37
2022-09-09T09:09:21.915Z,1003.38
2022-09-09T09:10:40.445Z,1003.39
2022-09-09T09:11:21.874Z,1003.37
2022-09-09T09:12:21.856Z,1003.38
2022-09-09T09:13:21.834Z,1003.34
2022-09-09T09:14:21.835Z,1003.43
2022-09-09T09:15:21.801Z,1003.46
2022-09-09T09:16:21.845Z,1003.45
2022-09-09T09:17:21.765Z,1003.46
2022-09-09T09:18:21.740Z,1003.46
2022-09-09T09:19:21.722Z,1003.47
2022-09-09T09:20:21.700Z,1003.47
2022-09-09T09:21:21.683Z,1003.46
2022-09-09T09:22:21.663Z,1003.47
2022-09-09T09:23:21.644Z,1003.46
2022-09-09T09:24:22.292Z,1003.44
2022-09-09T09:25:21.605Z,1003.45
2022-09-09T09:26:21.580Z,1003.44
2022-09-09T09:27:21.611Z,1003.48
2022-09-09T09:28:21.543Z,1003.46
2022-09-09T09:29:21.527Z,1003.35
2022-09-09T09:30:28.720Z,1003.45
2022-09-09T09:31:21.569Z,1003.38
2022-09-09T09:32:21.465Z,1003.41
2022-09-09T09:33:21.455Z,1003.41
2022-09-09T09:34:21.427Z,1003.45
2022-09-09T09:35:21.415Z,1003.43
2022-09-09T09:36:21.391Z,1003.43
2022-09-09T09:37:21.371Z,1003.47
2022-09-09T09:40:21.328Z,1003.48
2022-09-09T09:41:21.299Z,1003.39
2022-09-09T09:42:23.888Z,1003.41
2022-09-09T09:43:21.249Z,1003.42
2022-09-09T09:44:21.292Z,1003.50
2022-09-09T09:45:21.214Z,1003.49
2022-09-09T09:46:21.257Z,1003.44
2022-09-09T09:47:21.489Z,1003.40
2022-09-09T09:48:21.154Z,1003.34
2022-09-09T09:49:21.139Z,1003.45
2022-09-09T09:50:21.121Z,1003.48
2022-09-09T09:51:21.095Z,1003.38
2022-09-09T09:52:21.080Z,1003.39
2022-09-09T09:53:21.062Z,1003.43
2022-09-09T09:54:21.039Z,1003.38
2022-09-09T09:55:21.026Z,1003.44
2022-09-09T09:56:21.023Z,1003.39
2022-09-09T09:57:21.028Z,1003.37
2022-09-09T09:58:20.967Z,1003.26
2022-09-09T09:59:29.686Z,1003.29
2022-09-09T10:00:20.970Z,1003.35
2022-09-09T10:01:20.952Z,1003.33
2022-09-09T10:02:20.888Z,1003.37
2022-09-09T10:03:20.874Z,1003.40
2022-09-09T10:04:20.928Z,1003.24
2022-09-09T10:05:25.903Z,1003.30
2022-09-09T10:06:20.818Z,1003.27
2022-09-09T10:07:20.798Z,1003.31
2022-09-09T10:08:20.775Z,1003.37
2022-09-09T10:09:20.755Z,1003.30
2022-09-09T10:10:20.744Z,1003.38
2022-09-09T10:11:20.720Z,1003.39
2022-09-09T10:12:20.773Z,1003.31
2022-09-09T10:13:20.679Z,1003.34
2022-09-09T10:14:20.661Z,1003.24
2022-09-09T10:15:20.641Z,1003.22
2022-09-09T10:16:20.703Z,1003.32
2022-09-09T10:17:20.601Z,1003.29
2022-09-09T10:18:20.584Z,1003.30
2022-09-09T10:19:20.568Z,1003.32
2022-09-09T10:20:20.545Z,1003.31
2022-09-09T10:21:20.530Z,1003.23
2022-09-09T10:22:20.639Z,1003.38
2022-09-09T10:23:20.492Z,1003.33
2022-09-09T10:24:20.470Z,1003.32
2022-09-09T10:25:20.452Z,1003.32
2022-09-09T10:26:20.435Z,1003.39
2022-09-09T10:27:20.418Z,1003.27
2022-09-09T10:28:20.436Z,1003.34
2022-09-09T10:29:20.375Z,1003.26
2022-09-09T10:30:20.353Z,1003.28
2022-09-09T10:31:20.369Z,1003.22
2022-09-09T10:32:20.374Z,1003.22
2022-09-09T10:33:20.299Z,1003.27
2022-09-09T10:34:20.282Z,1003.21
2022-09-09T10:35:20.262Z,1003.25
2022-09-09T10:36:20.243Z,1003.24
2022-09-09T10:37:20.226Z,1003.30
2022-09-09T10:38:20.201Z,1003.26
2022-09-09T10:39:20.187Z,1003.28
2022-09-09T10:40:20.244Z,1003.32
2022-09-09T10:41:20.153Z,1003.28
2022-09-09T10:42:20.187Z,1003.29
2022-09-09T10:43:20.108Z,1003.34
2022-09-09T10:44:20.107Z,1003.20
2022-09-09T10:45:20.092Z,1003.22
2022-09-09T10:46:20.093Z,1003.26
2022-09-09T10:47:20.036Z,1003.18
2022-09-09T10:48:20.013Z,1003.23
2022-09-09T10:49:23.006Z,1003.21
2022-09-09T10:50:19.976Z,1003.21
2022-09-09T10:51:19.959Z,1003.33
2022-09-09T10:52:19.937Z,1003.27
2022-09-09T10:53:19.931Z,1003.27
2022-09-09T10:54:19.905Z,1003.30
2022-09-09T10:55:19.891Z,1003.11
2022-09-09T10:56:19.867Z,1003.12
2022-09-09T10:57:19.849Z,1003.06
2022-09-09T10:58:19.828Z,1002.99
2022-09-09T10:59:19.801Z,1003.09
2022-09-09T11:00:19.806Z,1003.06
2022-09-09T11:01:19.865Z,1003.16
2022-09-09T11:02:19.748Z,1003.11
2022-09-09T11:03:19.731Z,1003.14
2022-09-09T11:04:19.798Z,1003.07
2022-09-09T11:05:19.688Z,1003.07
2022-09-09T11:06:19.705Z,1003.07
2022-09-09T11:07:19.658Z,1003.06
2022-09-09T11:08:19.678Z,1003.01
2022-09-09T11:09:19.618Z,1003.05
2022-09-09T11:10:19.609Z,1003.11
2022-09-09T11:11:19.580Z,1003.15
2022-09-09T11:12:19.561Z,1003.09
2022-09-09T11:13:19.544Z,1003.09
2022-09-09T11:14:19.527Z,1003.10
2022-09-09T11:15:19.505Z,1003.12
2022-09-09T11:16:19.535Z,1003.14
2022-09-09T11:17:19.466Z,1003.04
2022-09-09T11:18:19.452Z,1003.04
2022-09-09T11:19:19.433Z,1003.04
2022-09-09T11:20:19.412Z,1003.08
2022-09-09T11:21:19.394Z,1003.13
2022-09-09T11:22:19.393Z,1003.08
2022-09-09T11:23:19.366Z,1003.04
2022-09-09T11:24:19.381Z,1003.16
2022-09-09T11:25:19.322Z,1003.19
2022-09-09T11:26:19.303Z,1003.18
2022-09-09T11:27:19.310Z,1003.15
2022-09-09T11:28:19.266Z,1003.07
2022-09-09T11:29:19.249Z,1003.02
2022-09-09T11:30:32.363Z,1003.07
2022-09-09T11:31:19.259Z,1003.08
2022-09-09T11:32:19.215Z,1003.06
2022-09-09T11:33:19.175Z,1003.08
2022-09-09T11:34:19.159Z,1003.09
2022-09-09T11:35:19.136Z,1003.12
2022-09-09T11:36:19.122Z,1003.16
2022-09-09T11:37:19.101Z,1003.07
2022-09-09T11:38:19.085Z,1003.12
2022-09-09T11:39:19.065Z,1003.15
2022-09-09T11:40:19.044Z,1003.11
2022-09-09T11:41:21.658Z,1003.14
2022-09-09T11:42:19.008Z,1003.16
2022-09-09T11:43:18.989Z,1003.22
2022-09-09T11:44:18.971Z,1003.20
2022-09-09T11:45:18.953Z,1003.17
2022-09-09T11:46:18.986Z,1003.19
2022-09-09T11:47:18.915Z,1003.11
2022-09-09T11:48:18.914Z,1003.21
2022-09-09T11:49:18.875Z,1003.15
2022-09-09T11:50:18.862Z,1003.19
2022-09-09T11:51:18.839Z,1003.20
2022-09-09T11:52:18.819Z,1003.24
2022-09-09T11:53:18.805Z,1003.34
2022-09-09T11:54:18.792Z,1003.30
2022-09-09T11:55:18.763Z,1003.18
2022-09-09T11:56:18.752Z,1003.18
2022-09-09T11:57:18.727Z,1003.20
2022-09-09T11:58:18.709Z,1003.20
2022-09-09T11:59:18.691Z,1003.17
2022-09-09T12:00:18.674Z,1003.11
2022-09-09T12:01:18.657Z,1003.19
2022-09-09T12:02:18.700Z,1003.17
2022-09-09T12:03:18.614Z,1003.14
2022-09-09T12:04:22.041Z,1003.02
2022-09-09T12:05:18.598Z,1003.07
2022-09-09T12:06:18.559Z,1002.99
2022-09-09T12:07:18.537Z,1003.05
2022-09-09T12:08:18.521Z,1003.08